Latest Weather Observations for Adelaide Airport

IDS60901

Issued at 7:11 am CDT Friday 30 October 2020 (issued every 10 minutes, with the page automatically refreshed every 10 minutes)

About weather observations | Map of Adelaide area stations | Latest observations for Adelaide area | Other Formats
Station Details ID: 023034 Name: ADELAIDE AIRPORT Lat: -34.95 Lon: 138.52 Height: 2.0 m
Data from the previous 72 hours. | See also: Recent months at Adelaide Airport
Date/Time
CDT
Temp
°C
App
Temp
°C
Dew
Point
°C
Rel
Hum
%
Delta-T
°C
Wind Press
QNH
hPa
Press
MSL
hPa
Rain since
9am
mm
Dir  Spd
km/h
Gust
km/h
Spd
kts
Gust
kts
30/07:00am 13.4 9.7 10.3 81 1.6 S 20 33 11 18 1012.0 1012.0 0.2
30/06:30am 13.4 9.4 10.3 81 1.6 S 22 32 12 17 1011.3 1011.3 0.2
30/06:00am 13.3 8.4 10.0 80 1.7 S 26 35 14 19 1010.9 1010.9 0.2
30/05:30am 13.0 8.7 10.7 86 1.2 SSW 24 32 13 17 1010.5 1010.5 0.2
30/05:00am 13.0 8.8 11.1 88 1.0 SSW 24 37 13 20 1010.2 1010.2 0.2
30/04:30am 13.2 8.0 10.1 81 1.6 SSW 28 37 15 20 1010.0 1010.0 0.2
30/04:00am 13.4 8.5 9.9 79 1.8 SSW 26 33 14 18 1009.7 1009.7 0.2
30/03:30am 13.3 8.4 9.8 79 1.8 SSW 26 37 14 20 1009.6 1009.6 0.2
30/03:00am 13.6 9.2 10.5 81 1.6 SSW 24 33 13 18 1009.5 1009.5 0.2
30/02:30am 13.6 7.7 10.3 80 1.7 SSW 32 39 17 21 1009.4 1009.4 0.2
30/02:00am 13.7 8.3 10.9 83 1.5 SSW 30 50 16 27 1009.6 1009.6 0.2
30/01:57am 13.8 8.7 10.6 81 1.7 SSW 28 50 15 27 1009.6 1009.6 0.2
30/01:30am 14.0 8.7 11.2 83 1.5 SSW 30 39 16 21 1009.7 1009.7 0.2
30/01:00am 14.1 8.3 10.9 81 1.7 SSW 32 46 17 25 1009.7 1009.7 0.2
30/12:30am 13.9 8.9 11.1 83 1.5 SSW 28 41 15 22 1009.5 1009.5 0.2
30/12:00am 14.1 9.7 11.7 85 1.3 S 26 35 14 19 1009.6 1009.6 0.2
 
Date/Time
CDT
Temp
°C
App
Temp
°C
Dew
Point
°C
Rel
Hum
%
Delta-T
°C
Wind Press
QNH
hPa
Press
MSL
hPa
Rain since
9am
mm
Dir  Spd
km/h
Gust
km/h
Spd
kts
Gust
kts
29/11:30pm 14.2 8.6 11.4 83 1.5 SSW 32 44 17 24 1009.4 1009.4 0.2
29/11:08pm 14.0 7.7 12.3 89 0.9 SSW 37 48 20 26 1009.2 1009.2 0.2
29/11:00pm 13.9 7.9 12.2 89 0.9 SSW 35 46 19 25 1009.2 1009.2 0.2
29/10:52pm 14.0 8.8 12.7 92 0.7 SSW 32 46 17 25 1009.2 1009.2 0.2
29/10:30pm 14.6 10.4 12.4 87 1.2 SSW 26 35 14 19 1009.3 1009.3 0.2
29/10:10pm 14.5 10.5 11.9 84 1.4 SSW 24 33 13 18 1009.3 1009.3 0.0
29/10:00pm 14.6 10.6 11.8 83 1.5 SSW 24 35 13 19 1009.1 1009.1 0.0
29/09:38pm 14.7 11.7 12.5 87 1.2 WSW 20 28 11 15 1008.8 1008.8 0.0
29/09:30pm 14.7 11.0 12.7 88 1.1 WSW 24 32 13 17 1008.9 1008.9 0.0
29/09:00pm 15.0 10.7 11.9 82 1.7 WSW 26 32 14 17 1009.1 1009.1 0.0
29/08:30pm 15.1 11.4 11.6 79 1.9 WSW 22 28 12 15 1009.0 1009.0 0.0
29/08:00pm 15.1 11.0 11.4 78 2.0 WSW 24 30 13 16 1008.9 1008.9 0.0
29/07:30pm 15.5 10.9 11.0 74 2.4 WSW 26 32 14 17 1008.9 1008.9 0.0
29/07:00pm 16.1 11.2 10.0 67 3.2 WSW 26 33 14 18 1008.8 1008.8 0.0
29/06:30pm 16.1 10.4 9.8 66 3.3 WSW 30 37 16 20 1008.7 1008.7 0.0
29/06:00pm 16.4 10.3 10.6 68 3.1 WSW 33 41 18 22 1008.5 1008.5 0.0
29/05:30pm 16.8 11.1 11.0 68 3.1 WSW 32 41 17 22 1008.5 1008.5 0.0
29/05:00pm 16.3 10.6 11.3 72 2.7 WSW 32 43 17 23 1008.3 1008.3 0.0
29/04:30pm 17.5 12.2 11.4 67 3.3 WSW 30 37 16 20 1008.2 1008.2 0.0
29/04:00pm 17.6 12.6 11.1 65 3.5 WSW 28 39 15 21 1008.3 1008.3 0.0
29/03:30pm 18.6 13.1 10.4 59 4.4 W 30 39 16 21 1008.6 1008.6 0.0
29/03:00pm 17.8 11.7 10.5 62 3.9 WSW 33 39 18 21 1009.1 1009.1 0.0
29/02:30pm 18.0 13.3 12.0 68 3.3 WSW 28 35 15 19 1009.3 1009.3 0.0
29/02:00pm 16.7 12.2 11.3 70 2.9 WSW 26 33 14 18 1009.5 1009.5 0.0
29/01:30pm 17.0 12.1 12.5 75 2.5 WSW 30 37 16 20 1009.4 1009.4 0.0
29/01:00pm 18.8 16.1 12.9 68 3.3 W 19 28 10 15 1009.5 1009.5 0.0
29/12:30pm 19.0 15.6 13.8 72 3.0 WNW 24 32 13 17 1009.7 1009.7 0.0
29/12:00pm 17.9 13.4 12.5 70 3.0 WNW 28 41 15 22 1009.8 1009.8 0.0
29/11:30am 17.8 11.7 11.6 67 3.4 NW 35 43 19 23 1009.7 1009.7 0.0
29/11:18am 18.1 12.4 11.9 67 3.4 NW 33 56 18 30 1009.7 1009.7 0.0
29/11:14am 18.5 13.2 11.4 63 3.9 NNW 30 56 16 30 1009.7 1009.7 0.0
29/11:00am 20.8 14.9 7.4 42 6.9 N 28 41 15 22 1009.0 1009.0 0.0
29/10:30am 21.2 15.1 6.7 39 7.4 NNE 28 37 15 20 1008.7 1008.7 0.0
29/10:00am 19.5 12.7 7.1 44 6.3 NNE 32 41 17 22 1008.8 1008.8 0.0
29/09:30am 18.5 12.4 6.7 46 5.9 NNE 28 37 15 20 1009.9 1009.9 0.0
29/09:00am 17.7 12.0 6.6 48 5.5 NNE 26 32 14 17 1010.2 1010.2 0.0
29/08:30am 17.1 11.3 6.3 49 5.3 NNE 26 32 14 17 1010.8 1010.8 0.0
29/08:00am 17.3 11.0 5.5 45 5.7 NNE 28 33 15 18 1011.0 1011.0 0.0
29/07:30am 17.6 11.8 4.6 42 6.2 NNE 24 32 13 17 1010.8 1010.8 0.0
29/07:00am 16.6 14.6 6.1 50 5.1 NNW 6 9 3 5 1011.3 1011.3 0.0
29/06:30am 16.4 13.8 5.9 50 5.1 NE 9 13 5 7 1011.1 1011.1 0.0
29/06:00am 16.4 12.9 5.3 47 5.3 NE 13 15 7 8 1010.8 1010.8 0.0
29/05:30am 16.4 13.2 5.3 47 5.3 N 11 13 6 7 1010.7 1010.7 0.0
29/05:00am 16.7 13.4 4.7 45 5.7 N 11 13 6 7 1010.6 1010.6 0.0
29/04:30am 16.6 12.2 4.8 45 5.6 NE 17 20 9 11 1009.4 1009.4 0.0
29/04:00am 16.5 11.5 4.4 44 5.7 NE 20 28 11 15 1009.5 1009.5 0.0
29/03:30am 16.2 11.8 4.5 45 5.5 NE 17 22 9 12 1010.0 1010.0 0.0
29/03:00am 16.2 11.3 5.1 47 5.3 NNE 20 28 11 15 1010.4 1010.4 0.0
29/02:30am 16.4 11.5 5.1 47 5.4 NE 20 26 11 14 1010.9 1010.9 0.0
29/02:00am 15.7 12.4 6.5 54 4.5 NNE 13 19 7 10 1012.0 1012.0 0.0
29/01:30am 15.7 13.8 6.7 55 4.4 NNE 6 15 3 8 1012.6 1012.6 0.0
29/01:00am 15.2 11.7 7.1 58 4.0 NE 15 17 8 9 1013.5 1013.5 0.0
29/12:30am 13.9 11.3 7.8 66 3.0 NE 11 13 6 7 1014.6 1014.6 0.0
29/12:00am 13.5 10.6 6.6 63 3.3 NE 11 13 6 7 1015.2 1015.2 0.0
 
Date/Time
CDT
Temp
°C
App
Temp
°C
Dew
Point
°C
Rel
Hum
%
Delta-T
°C
Wind Press
QNH
hPa
Press
MSL
hPa
Rain since
9am
mm
Dir  Spd
km/h
Gust
km/h
Spd
kts
Gust
kts
28/11:30pm 13.5 12.6 6.1 61 3.5 CALM 0 0 0 0 1015.6 1015.6 0.0
28/11:00pm 13.3 12.8 7.8 69 2.7 CALM 0 0 0 0 1015.9 1015.9 0.0
28/10:30pm 14.0 13.6 8.4 69 2.8 CALM 0 0 0 0 1016.3 1016.3 0.0
28/10:00pm 15.3 14.1 7.9 61 3.7 S 4 7 2 4 1016.8 1016.8 0.0
28/09:30pm 15.4 13.9 10.7 73 2.5 SW 9 11 5 6 1016.9 1016.9 0.0
28/09:00pm 15.0 13.4 7.8 62 3.6 ESE 6 7 3 4 1016.5 1016.5 0.0
28/08:30pm 15.9 14.1 9.5 66 3.3 SW 9 9 5 5 1016.4 1016.4 0.0
28/08:00pm 16.8 15.2 8.6 58 4.2 SSW 7 9 4 5 1016.4 1016.4 0.0
28/07:30pm 17.6 15.0 6.2 47 5.6 SSW 9 13 5 7 1016.4 1016.4 0.0
28/07:00pm 18.2 14.8 7.5 49 5.4 SW 15 20 8 11 1016.5 1016.5 0.0
28/06:30pm 19.7 16.7 6.2 41 6.7 SW 11 13 6 7 1016.2 1016.2 0.0
28/06:00pm 19.5 16.3 7.0 44 6.3 SW 13 17 7 9 1016.2 1016.2 0.0
28/05:30pm 18.8 14.8 9.0 53 5.1 SW 20 26 11 14 1015.9 1015.9 0.0
28/05:00pm 19.8 15.9 6.9 43 6.5 SW 17 20 9 11 1015.8 1015.8 0.0
28/04:30pm 20.6 17.6 6.0 38 7.3 SW 11 17 6 9 1015.7 1015.7 0.0
28/04:00pm 19.3 15.7 8.3 49 5.7 WSW 17 20 9 11 1016.2 1016.2 0.0
28/03:30pm 19.0 15.3 9.3 53 5.1 SW 19 26 10 14 1016.5 1016.5 0.0
28/03:00pm 19.4 15.5 9.6 53 5.2 SW 20 26 11 14 1017.0 1017.0 0.0
28/02:30pm 18.7 14.9 9.1 53 5.0 WSW 19 26 10 14 1017.5 1017.5 0.0
28/02:00pm 18.9 15.9 9.2 53 5.1 WSW 15 20 8 11 1017.6 1017.6 0.0
28/01:30pm 18.7 16.3 10.1 57 4.6 WSW 13 19 7 10 1017.9 1017.9 0.0
28/01:00pm 17.7 14.8 11.0 65 3.6 WSW 17 22 9 12 1018.6 1018.6 0.0
28/12:30pm 17.3 14.3 10.5 64 3.6 WSW 17 20 9 11 1018.9 1018.9 0.0
28/12:00pm 17.4 14.5 10.9 65 3.5 WSW 17 24 9 13 1019.4 1019.4 0.0
28/11:30am 18.0 15.0 9.2 56 4.6 W 15 20 8 11 1019.7 1019.7 0.0
28/11:00am 17.6 15.2 8.7 56 4.6 W 11 17 6 9 1019.9 1019.9 0.0
28/10:30am 17.7 15.4 9.0 56 4.5 W 11 17 6 9 1020.0 1020.0 0.0
28/10:00am 17.6 15.9 8.4 55 4.7 WNW 7 13 4 7 1019.9 1019.9 0.0
28/09:30am 17.1 15.6 8.5 57 4.4 NNW 6 9 3 5 1020.1 1020.1 0.0
28/09:00am 16.3 15.6 8.6 60 3.9 ENE 2 6 1 3 1020.1 1020.1 0.2
28/08:30am 15.3 14.7 9.0 66 3.2 ENE 2 7 1 4 1020.3 1020.3 0.2
28/08:00am 13.8 13.5 8.8 72 2.5 CALM 0 0 0 0 1020.1 1020.1 0.2
28/07:30am 11.4 11.1 8.6 83 1.4 CALM 0 0 0 0 1019.9 1019.9 0.2
28/07:00am 9.5 8.1 7.4 87 1.0 ENE 4 7 2 4 1019.5 1019.5 0.2
28/06:30am 8.4 7.6 6.4 87 0.9 CALM 0 0 0 0 1019.2 1019.2 0.2
28/06:00am 8.0 6.1 6.7 91 0.6 ESE 6 7 3 4 1019.0 1019.0 0.2
28/05:30am 8.3 7.5 6.3 87 0.9 CALM 0 0 0 0 1018.8 1018.8 0.2
28/05:00am 9.2 7.2 7.1 87 1.0 E 7 7 4 4 1018.6 1018.6 0.2
28/04:30am 9.3 7.4 7.6 89 0.8 E 7 7 4 4 1018.5 1018.5 0.2
28/04:00am 9.5 8.9 7.4 87 1.0 CALM 0 2 0 1 1018.5 1018.5 0.2
28/03:30am 9.7 7.7 6.9 83 1.3 ENE 7 9 4 5 1018.5 1018.5 0.2
28/03:00am 9.5 7.5 6.9 84 1.2 NE 7 9 4 5 1018.6 1018.6 0.2
28/02:30am 11.3 9.3 6.9 74 2.1 NNE 7 7 4 4 1018.7 1018.7 0.2
28/02:00am 10.9 9.1 7.1 77 1.8 NNW 6 7 3 4 1019.1 1019.1 0.2
28/01:30am 11.6 10.5 6.7 72 2.3 NW 2 7 1 4 1019.2 1019.2 0.2
28/01:00am 11.7 8.9 6.9 72 2.3 ESE 11 11 6 6 1019.4 1019.4 0.2
28/12:30am 12.3 9.4 6.6 68 2.7 ESE 11 15 6 8 1019.5 1019.5 0.2
28/12:00am 13.1 11.2 6.9 66 3.0 SSE 6 11 3 6 1019.6 1019.6 0.2
 
Date/Time
CDT
Temp
°C
App
Temp
°C
Dew
Point
°C
Rel
Hum
%
Delta-T
°C
Wind Press
QNH
hPa
Press
MSL
hPa
Rain since
9am
mm
Dir  Spd
km/h
Gust
km/h
Spd
kts
Gust
kts
27/11:30pm 12.8 10.1 7.2 69 2.7 SE 11 19 6 10 1019.8 1019.8 0.2
27/11:00pm 11.9 11.7 8.9 82 1.5 CALM 0 0 0 0 1019.9 1019.9 0.2
27/10:30pm 12.4 10.5 9.0 80 1.7 E 9 13 5 7 1019.8 1019.8 0.2
27/10:00pm 12.6 12.4 9.2 80 1.7 CALM 0 0 0 0 1019.8 1019.8 0.2
27/09:30pm 13.8 13.0 9.5 75 2.2 E 4 7 2 4 1019.6 1019.6 0.2
27/09:00pm 14.5 12.3 9.2 70 2.7 ESE 11 13 6 7 1019.4 1019.4 0.2
27/08:30pm 15.4 12.6 8.5 63 3.5 SSE 13 15 7 8 1019.3 1019.3 0.2
27/08:00pm 15.7 13.0 9.1 65 3.4 SSE 13 15 7 8 1019.0 1019.0 0.2
27/07:30pm 16.1 15.5 9.1 63 3.6 SE 2 9 1 5 1018.7 1018.7 0.2
27/07:00pm 16.6 15.3 9.3 62 3.8 ESE 6 7 3 4 1018.5 1018.5 0.2
27/06:30pm 17.2 15.3 9.1 59 4.2 ENE 9 11 5 6 1018.4 1018.4 0.2
27/06:00pm 18.3 15.7 10.7 61 4.1 ESE 15 20 8 11 1018.1 1018.1 0.2
27/05:30pm 18.5 14.2 10.7 60 4.2 SW 24 32 13 17 1017.7 1017.7 0.2
27/05:00pm 18.5 14.9 12.0 66 3.6 SW 22 30 12 16 1017.8 1017.8 0.2
27/04:30pm 18.0 13.4 11.0 63 3.8 SW 26 33 14 18 1017.8 1017.8 0.2
27/04:00pm 17.4 13.9 12.1 71 2.9 SW 22 30 12 16 1018.0 1018.0 0.2
27/03:30pm 16.8 13.8 12.0 73 2.6 SW 19 26 10 14 1018.2 1018.2 0.2
27/03:00pm 17.1 14.1 12.4 74 2.6 SW 20 26 11 14 1018.5 1018.5 0.2
27/02:30pm 18.3 14.9 10.4 60 4.2 SW 19 24 10 13 1018.7 1018.7 0.2
27/02:00pm 17.3 13.8 11.0 66 3.4 WSW 20 26 11 14 1018.8 1018.8 0.2
27/01:30pm 17.6 15.2 10.2 62 3.9 W 13 19 7 10 1019.0 1019.0 0.2
27/01:00pm 17.7 16.3 9.5 58 4.3 SSE 7 9 4 5 1019.2 1019.2 0.2
27/12:30pm 17.4 15.0 11.5 68 3.2 E 15 19 8 10 1019.6 1019.6 0.2
27/12:00pm 18.2 15.1 10.3 60 4.2 ENE 17 24 9 13 1019.8 1019.8 0.2
27/11:30am 17.8 14.8 10.5 62 3.9 ENE 17 28 9 15 1020.0 1020.0 0.2
27/11:00am 18.7 15.2 8.7 52 5.2 ENE 17 26 9 14 1020.2 1020.2 0.2
27/10:30am 16.8 15.3 9.3 61 3.9 NNE 7 11 4 6 1020.4 1020.4 0.2
27/10:00am 15.8 15.9 10.1 69 3.0 CALM 0 0 0 0 1020.4 1020.4 0.2
27/09:30am 14.8 15.0 10.4 75 2.3 CALM 0 7 0 4 1020.4 1020.4 0.2
27/09:00am 14.0 13.2 11.0 82 1.6 SW 6 11 3 6 1020.7 1020.7 0.8
27/08:30am 13.5 11.7 10.8 84 1.4 S 11 13 6 7 1020.6 1020.6 0.8
27/08:00am 13.2 10.7 11.1 87 1.1 SSE 15 20 8 11 1020.4 1020.4 0.8
27/07:30am 13.4 11.1 10.5 82 1.5 SSE 13 20 7 11 1020.4 1020.4 0.2

Latest Capital City Observations: Canberra | Sydney | Melbourne | Brisbane | Adelaide | Perth | Hobart | Darwin

Other formats

Comma delimited format used in spreadsheet applications
http://www.bom.gov.au/fwo/IDS60901/IDS60901.94672.axf

JavaScript Object Notation format (JSON) in row-major order
http://www.bom.gov.au/fwo/IDS60901/IDS60901.94672.json

Data quality

Most of these data are generated automatically and are frequently updated. Quality checks on data are not normally performed. It is possible for incorrect values to appear. Refer to information at About Latest Weather Observations and please check the disclaimer before using these data.